createdAt,value
2017-09-03T00:01:31.938Z,19.40
2017-09-03T00:04:33.253Z,10.77
2017-09-03T00:07:34.588Z,9.23
2017-09-03T00:10:35.893Z,9.60
2017-09-03T00:13:37.258Z,7.43
2017-09-03T00:16:38.614Z,11.70
2017-09-03T00:19:39.996Z,8.40
2017-09-03T00:22:41.364Z,18.23
2017-09-03T00:25:42.778Z,8.40
2017-09-03T00:28:44.121Z,4.33
2017-09-03T00:31:45.943Z,5.90
2017-09-03T00:34:47.338Z,17.47
2017-09-03T00:37:48.772Z,5.00
2017-09-03T00:40:50.102Z,16.23
2017-09-03T00:43:51.492Z,10.47
2017-09-03T00:46:52.791Z,13.67
2017-09-03T00:49:54.198Z,4.43
2017-09-03T00:52:55.556Z,15.23
2017-09-03T00:55:56.892Z,7.03
2017-09-03T00:58:58.257Z,8.00
2017-09-03T01:01:59.560Z,11.10
2017-09-03T01:05:00.905Z,28.67
2017-09-03T01:08:02.254Z,5.97
2017-09-03T01:11:03.618Z,8.30
2017-09-03T01:14:05.125Z,8.70
2017-09-03T01:17:06.460Z,12.67
2017-09-03T01:20:07.798Z,7.70
2017-09-03T01:23:09.429Z,9.57
2017-09-03T01:26:10.758Z,7.13
2017-09-03T01:29:12.106Z,8.10
2017-09-03T01:32:13.457Z,13.27
2017-09-03T01:35:14.807Z,16.43
2017-09-03T01:38:16.097Z,8.63
2017-09-03T01:41:17.434Z,9.70
2017-09-03T01:44:18.737Z,10.93
2017-09-03T01:47:20.120Z,8.33
2017-09-03T01:50:21.440Z,12.17
2017-09-03T01:53:22.744Z,11.53
2017-09-03T01:56:24.070Z,10.63
2017-09-03T01:59:25.377Z,7.70
2017-09-03T02:02:26.689Z,7.30
2017-09-03T02:05:28.013Z,6.87
2017-09-03T02:08:29.304Z,15.60
2017-09-03T02:11:30.636Z,17.30
2017-09-03T02:14:31.933Z,9.10
2017-09-03T02:17:33.281Z,7.60
2017-09-03T02:20:34.625Z,11.90
2017-09-03T02:23:35.942Z,12.73
2017-09-03T02:26:37.252Z,25.47
2017-09-03T02:29:38.590Z,15.43
2017-09-03T02:32:40.292Z,8.13
2017-09-03T02:35:41.590Z,7.67
2017-09-03T02:38:42.917Z,8.37
2017-09-03T02:41:44.213Z,7.27
2017-09-03T02:44:45.530Z,10.00
2017-09-03T02:47:46.801Z,10.67
2017-09-03T02:50:48.181Z,7.17
2017-09-03T02:53:49.532Z,12.10
2017-09-03T02:56:50.886Z,11.00
2017-09-03T02:59:52.648Z,9.80
2017-09-03T03:02:53.968Z,13.30
2017-09-03T03:05:55.309Z,17.93
2017-09-03T03:08:56.628Z,8.43
2017-09-03T03:11:57.989Z,14.70
2017-09-03T03:14:59.300Z,12.73
2017-09-03T03:18:00.753Z,8.77
2017-09-03T03:21:02.041Z,18.13
2017-09-03T03:24:03.421Z,19.37
2017-09-03T03:27:04.749Z,16.30
2017-09-03T03:30:06.042Z,15.43
2017-09-03T03:33:07.377Z,14.90
2017-09-03T03:36:08.689Z,14.20
2017-09-03T03:39:10.047Z,15.43
2017-09-03T03:42:11.373Z,13.33
2017-09-03T03:45:12.661Z,23.53
2017-09-03T03:48:14.028Z,13.73
2017-09-03T03:51:15.332Z,22.30
2017-09-03T03:54:16.842Z,11.47
2017-09-03T03:57:18.168Z,15.20
2017-09-03T04:00:19.492Z,13.33
2017-09-03T04:03:20.856Z,12.50
2017-09-03T04:06:22.182Z,16.57
2017-09-03T04:09:23.537Z,15.53
2017-09-03T04:12:24.861Z,12.77
2017-09-03T04:15:26.172Z,15.17
2017-09-03T04:18:27.536Z,17.30
2017-09-03T04:21:28.836Z,14.20
2017-09-03T04:24:30.185Z,17.37
2017-09-03T04:27:31.636Z,12.23
2017-09-03T04:30:32.977Z,17.70
2017-09-03T04:33:34.310Z,18.07
2017-09-03T04:36:35.610Z,9.90
2017-09-03T04:39:36.925Z,14.40
2017-09-03T04:42:38.205Z,9.97
2017-09-03T04:45:39.557Z,12.03
2017-09-03T04:48:40.890Z,18.50
2017-09-03T04:51:42.189Z,13.20
2017-09-03T04:54:43.537Z,9.07
2017-09-03T04:57:44.849Z,10.77
2017-09-03T05:00:46.181Z,13.03
2017-09-03T05:03:47.496Z,15.63
2017-09-03T05:06:48.824Z,27.17
2017-09-03T05:09:50.149Z,16.17
2017-09-03T05:12:51.449Z,12.80
2017-09-03T05:15:52.769Z,16.80
2017-09-03T05:18:54.116Z,11.80
2017-09-03T05:21:55.669Z,19.73
2017-09-03T05:24:57.020Z,10.27
2017-09-03T05:27:58.321Z,25.80
2017-09-03T05:30:59.675Z,18.97
2017-09-03T05:34:00.989Z,14.00
2017-09-03T05:37:02.363Z,17.07
2017-09-03T05:40:03.797Z,22.37
2017-09-03T05:43:05.109Z,23.33
2017-09-03T05:46:06.442Z,14.93
2017-09-03T05:49:07.742Z,11.50
2017-09-03T05:52:09.065Z,14.50
2017-09-03T05:55:10.350Z,17.47
2017-09-03T05:58:11.685Z,13.00
2017-09-03T06:01:13.072Z,13.03
2017-09-03T06:04:14.355Z,19.70
2017-09-03T06:07:15.713Z,18.97
2017-09-03T06:10:17.032Z,16.20
2017-09-03T06:13:18.380Z,21.40
2017-09-03T06:16:19.692Z,17.10
2017-09-03T06:19:21.079Z,18.73
2017-09-03T06:22:22.424Z,31.17
2017-09-03T06:25:23.768Z,37.57
2017-09-03T06:28:25.212Z,15.27
2017-09-03T06:31:26.506Z,17.80
2017-09-03T06:34:27.829Z,15.10
2017-09-03T06:37:29.165Z,23.57
2017-09-03T06:40:30.524Z,20.37
2017-09-03T06:43:31.816Z,31.47
2017-09-03T06:46:33.149Z,20.00
2017-09-03T06:49:34.485Z,14.90
2017-09-03T06:52:35.780Z,40.97
2017-09-03T06:55:37.137Z,21.13
2017-09-03T06:58:38.462Z,31.03
2017-09-03T07:01:39.817Z,35.97
2017-09-03T07:04:41.158Z,32.00
2017-09-03T07:07:42.480Z,14.30
2017-09-03T07:10:43.777Z,17.07
2017-09-03T07:13:45.105Z,32.23
2017-09-03T07:16:46.441Z,24.90
2017-09-03T07:19:48.564Z,20.87
2017-09-03T07:22:49.934Z,24.83
2017-09-03T07:25:51.281Z,18.03
2017-09-03T07:28:52.567Z,17.03
2017-09-03T07:31:53.874Z,17.93
2017-09-03T07:34:55.193Z,18.27
2017-09-03T07:37:56.489Z,25.43
2017-09-03T07:40:57.848Z,26.40
2017-09-03T07:43:59.209Z,20.17
2017-09-03T07:47:00.552Z,22.23
2017-09-03T07:50:01.914Z,17.53
2017-09-03T07:53:03.253Z,59.00
2017-09-03T07:56:04.600Z,37.30
2017-09-03T07:59:05.876Z,32.00
2017-09-03T08:02:07.209Z,26.43
2017-09-03T08:05:08.810Z,33.87
2017-09-03T08:08:10.133Z,40.27
2017-09-03T08:11:11.454Z,40.30
2017-09-03T08:14:12.763Z,34.33
2017-09-03T08:17:14.077Z,51.33
2017-09-03T08:20:15.403Z,31.07
2017-09-03T08:23:16.734Z,36.20
2017-09-03T08:26:18.085Z,44.73
2017-09-03T08:29:19.424Z,33.13
2017-09-03T08:32:20.750Z,27.33
2017-09-03T08:35:22.062Z,34.77
2017-09-03T08:38:23.420Z,33.93
2017-09-03T08:41:24.697Z,30.17
2017-09-03T08:44:26.034Z,27.83
2017-09-03T08:47:27.363Z,32.70
2017-09-03T08:50:28.657Z,26.97
2017-09-03T08:53:30.005Z,25.23
2017-09-03T08:56:31.329Z,38.37
2017-09-03T08:59:32.676Z,44.30
2017-09-03T09:02:34.015Z,32.33
2017-09-03T09:05:35.324Z,32.80
2017-09-03T09:08:36.645Z,26.53
2017-09-03T09:11:37.957Z,38.17
2017-09-03T09:14:39.286Z,30.83
2017-09-03T09:17:40.625Z,31.23
2017-09-03T09:20:41.990Z,21.33
2017-09-03T09:23:43.364Z,34.40
2017-09-03T09:26:44.665Z,24.50
2017-09-03T09:29:46.049Z,19.40
2017-09-03T09:32:47.401Z,22.83
2017-09-03T09:35:48.724Z,15.87
2017-09-03T09:38:50.079Z,15.03
2017-09-03T09:41:51.373Z,15.90
2017-09-03T09:44:52.710Z,17.53
2017-09-03T09:47:54.063Z,20.07
2017-09-03T09:50:55.436Z,19.00
2017-09-03T09:53:56.797Z,21.80
2017-09-03T09:56:58.132Z,13.43
2017-09-03T09:59:59.479Z,20.60
2017-09-03T10:03:00.773Z,14.23
2017-09-03T10:06:02.110Z,13.13
2017-09-03T10:09:03.464Z,18.20
2017-09-03T10:12:04.785Z,27.10
2017-09-03T10:15:06.112Z,33.27
2017-09-03T10:18:07.434Z,14.00
2017-09-03T10:21:08.802Z,20.77
2017-09-03T10:24:10.144Z,20.37
2017-09-03T10:27:11.490Z,34.10
2017-09-03T10:30:12.817Z,29.37
2017-09-03T10:33:14.181Z,32.97
2017-09-03T10:36:15.497Z,15.27
2017-09-03T10:39:16.821Z,27.27
2017-09-03T10:42:18.145Z,24.40
2017-09-03T10:45:19.461Z,13.93
2017-09-03T10:48:20.785Z,11.70
2017-09-03T10:51:22.137Z,26.43
2017-09-03T10:54:23.497Z,22.90
2017-09-03T10:57:25.129Z,20.93
2017-09-03T11:00:26.444Z,24.63
2017-09-03T11:03:28.518Z,20.90
2017-09-03T11:06:29.834Z,29.57
2017-09-03T11:09:31.177Z,12.10
2017-09-03T11:12:32.462Z,13.63
2017-09-03T11:15:33.820Z,16.67
2017-09-03T11:18:35.424Z,9.07
2017-09-03T11:21:36.746Z,23.53
2017-09-03T11:24:38.177Z,7.63
2017-09-03T11:27:40.257Z,11.63
2017-09-03T11:30:41.591Z,5.80
2017-09-03T11:33:42.949Z,12.73
2017-09-03T11:36:44.311Z,4.80
2017-09-03T11:39:45.635Z,10.43
2017-09-03T11:42:47.002Z,7.00
2017-09-03T11:45:48.613Z,11.50
2017-09-03T11:48:49.984Z,7.67
2017-09-03T11:51:51.362Z,10.70
2017-09-03T11:54:52.736Z,7.50
2017-09-03T11:57:54.120Z,5.47
2017-09-03T12:00:55.457Z,7.23
2017-09-03T12:03:56.830Z,4.97
2017-09-03T12:06:58.165Z,6.40
2017-09-03T12:09:59.503Z,11.90
2017-09-03T12:13:00.869Z,6.67
2017-09-03T12:16:02.229Z,6.40
2017-09-03T12:19:03.650Z,10.40
2017-09-03T12:22:04.962Z,14.77
2017-09-03T12:25:06.306Z,9.30
2017-09-03T12:28:08.017Z,13.00
2017-09-03T12:31:09.375Z,7.70
2017-09-03T12:34:10.772Z,27.60
2017-09-03T12:37:12.125Z,8.63
2017-09-03T12:40:13.509Z,11.23
2017-09-03T12:43:14.855Z,10.87
2017-09-03T12:46:16.204Z,14.30
2017-09-03T12:49:17.649Z,9.90
2017-09-03T12:52:18.984Z,8.43
2017-09-03T12:55:20.724Z,14.50
2017-09-03T12:58:22.010Z,7.00
2017-09-03T13:01:23.458Z,6.50
2017-09-03T13:04:24.773Z,3.40
2017-09-03T13:07:26.118Z,5.47
2017-09-03T13:10:27.436Z,6.60
2017-09-03T13:13:28.749Z,8.60
2017-09-03T13:16:30.052Z,8.70
2017-09-03T13:19:31.444Z,5.60
2017-09-03T13:22:32.797Z,11.53
2017-09-03T13:25:34.141Z,4.13
2017-09-03T13:28:35.588Z,13.83
2017-09-03T13:31:36.925Z,4.70
2017-09-03T13:34:38.247Z,12.93
2017-09-03T13:37:39.578Z,13.20
2017-09-03T13:40:40.934Z,6.37
2017-09-03T13:43:42.277Z,6.43
2017-09-03T13:46:43.614Z,6.20
2017-09-03T13:49:45.069Z,14.67
2017-09-03T13:52:46.373Z,5.90
2017-09-03T13:55:47.693Z,5.90
2017-09-03T13:58:48.977Z,14.83
2017-09-03T14:01:50.309Z,7.33
2017-09-03T14:04:51.645Z,6.17
2017-09-03T14:07:52.953Z,5.70
2017-09-03T14:10:54.385Z,18.77
2017-09-03T14:13:55.696Z,9.13
2017-09-03T14:16:57.035Z,21.27
2017-09-03T14:19:58.381Z,10.67
2017-09-03T14:22:59.735Z,19.10
2017-09-03T14:26:01.041Z,30.50
2017-09-03T14:29:02.357Z,10.73
2017-09-03T14:32:03.654Z,10.30
2017-09-03T14:35:04.996Z,4.60
2017-09-03T14:38:06.305Z,13.10
2017-09-03T14:41:07.622Z,11.80
2017-09-03T14:44:08.924Z,9.97
2017-09-03T14:47:10.268Z,9.50
2017-09-03T14:50:11.740Z,13.33
2017-09-03T14:53:13.049Z,8.47
2017-09-03T14:56:14.520Z,7.07
2017-09-03T14:59:15.828Z,15.07
2017-09-03T15:02:17.129Z,8.00
2017-09-03T15:05:18.421Z,7.07
2017-09-03T15:08:19.763Z,9.43
2017-09-03T15:11:21.060Z,36.20
2017-09-03T15:14:22.483Z,19.00
2017-09-03T15:17:23.893Z,7.43
2017-09-03T15:20:25.237Z,8.23
2017-09-03T15:23:26.640Z,10.80
2017-09-03T15:26:28.051Z,10.93
2017-09-03T15:29:29.597Z,4.80
2017-09-03T15:32:31.178Z,13.07
2017-09-03T15:35:32.611Z,32.50
2017-09-03T15:38:33.994Z,13.03
2017-09-03T15:41:35.309Z,16.97
2017-09-03T15:44:36.684Z,6.00
2017-09-03T15:47:38.029Z,5.00
2017-09-03T15:50:39.393Z,20.90
2017-09-03T15:53:40.768Z,10.07
2017-09-03T15:56:42.117Z,14.43
2017-09-03T15:59:43.497Z,8.00
2017-09-03T16:02:44.881Z,6.33
2017-09-03T16:05:46.248Z,10.13
2017-09-03T16:08:47.605Z,11.93
2017-09-03T16:11:48.921Z,9.10
2017-09-03T16:14:50.217Z,5.70
2017-09-03T16:17:51.557Z,8.70
2017-09-03T16:20:52.937Z,8.40
2017-09-03T16:23:54.264Z,6.67
2017-09-03T16:26:55.589Z,8.30
2017-09-03T16:29:56.912Z,4.33
2017-09-03T16:32:58.239Z,9.87
2017-09-03T16:35:59.594Z,7.57
2017-09-03T16:39:00.886Z,8.90
2017-09-03T16:42:02.224Z,6.33
2017-09-03T16:45:03.505Z,8.50
2017-09-03T16:48:04.847Z,12.30
2017-09-03T16:51:06.192Z,6.10
2017-09-03T16:54:07.556Z,7.20
2017-09-03T16:57:08.951Z,9.10
2017-09-03T17:00:10.305Z,8.20
2017-09-03T17:03:11.653Z,15.00
2017-09-03T17:06:12.986Z,19.60
2017-09-03T17:09:14.360Z,23.30
2017-09-03T17:12:15.748Z,13.80
2017-09-03T17:15:17.117Z,12.33
2017-09-03T17:18:18.493Z,7.60
2017-09-03T17:21:19.833Z,7.10
2017-09-03T17:24:21.198Z,17.73
2017-09-03T17:27:22.568Z,7.30
2017-09-03T17:30:23.956Z,10.13
2017-09-03T17:33:25.343Z,4.87
2017-09-03T17:36:30.541Z,4.93
2017-09-03T17:39:32.881Z,4.03
2017-09-03T17:42:34.213Z,8.93
2017-09-03T17:45:35.538Z,3.63
2017-09-03T17:48:36.926Z,5.20
2017-09-03T17:51:38.269Z,6.60
2017-09-03T17:54:39.666Z,14.03
2017-09-03T17:57:41.150Z,3.60
2017-09-03T18:00:42.533Z,3.80
2017-09-03T18:03:44.079Z,7.47
2017-09-03T18:06:45.432Z,16.77
2017-09-03T18:09:46.817Z,7.03
2017-09-03T18:12:48.153Z,4.10
2017-09-03T18:15:49.521Z,7.73
2017-09-03T18:18:50.885Z,10.03
2017-09-03T18:21:52.393Z,7.60
2017-09-03T18:24:53.759Z,12.23
2017-09-03T18:27:55.131Z,6.20
2017-09-03T18:30:57.446Z,6.43
2017-09-03T18:33:58.805Z,8.00
2017-09-03T18:37:16.111Z,8.00
2017-09-03T18:40:17.498Z,13.33
2017-09-03T18:43:20.834Z,5.80
2017-09-03T18:46:26.289Z,6.80
2017-09-03T18:49:30.716Z,13.83
2017-09-03T18:52:32.990Z,12.40
2017-09-03T18:55:36.271Z,7.80
2017-09-03T18:58:52.853Z,13.83
2017-09-03T19:01:54.205Z,9.67
2017-09-03T19:04:58.380Z,9.00
2017-09-03T19:07:59.766Z,11.07
2017-09-03T19:11:01.154Z,5.13
2017-09-03T19:14:02.558Z,11.80
2017-09-03T19:17:03.957Z,4.93
2017-09-03T19:20:05.433Z,9.37
2017-09-03T19:23:06.829Z,5.97
2017-09-03T19:26:08.615Z,6.13
2017-09-03T19:29:09.993Z,3.90
2017-09-03T19:32:11.386Z,8.70
2017-09-03T19:35:12.733Z,6.07
2017-09-03T19:38:14.146Z,5.00
2017-09-03T19:41:23.809Z,6.63
2017-09-03T19:44:25.131Z,7.90
2017-09-03T19:47:26.440Z,18.83
2017-09-03T19:50:27.800Z,18.97
2017-09-03T19:53:29.092Z,8.73
2017-09-03T19:56:30.456Z,14.40
2017-09-03T19:59:31.944Z,3.73
2017-09-03T20:02:33.284Z,5.80
2017-09-03T20:05:34.944Z,5.23
2017-09-03T20:08:36.265Z,6.20
2017-09-03T20:11:37.669Z,6.63
2017-09-03T20:14:38.988Z,8.63
2017-09-03T20:17:40.305Z,5.40
2017-09-03T20:20:41.622Z,9.33
2017-09-03T20:23:42.934Z,3.80
2017-09-03T20:26:44.283Z,7.57
2017-09-03T20:29:45.604Z,3.50
2017-09-03T20:32:47.294Z,4.37
2017-09-03T20:35:48.715Z,8.80
2017-09-03T20:38:50.094Z,13.07
2017-09-03T20:41:51.428Z,6.20
2017-09-03T20:44:52.767Z,7.70
2017-09-03T20:47:54.079Z,6.80
2017-09-03T20:50:55.409Z,16.53
2017-09-03T20:53:56.804Z,6.33
2017-09-03T20:56:58.153Z,3.87
2017-09-03T20:59:59.490Z,3.93
2017-09-03T21:03:00.845Z,7.57
2017-09-03T21:06:02.349Z,4.90
2017-09-03T21:09:03.751Z,7.63
2017-09-03T21:12:05.075Z,9.67
2017-09-03T21:15:06.404Z,6.53
2017-09-03T21:18:07.758Z,5.20
2017-09-03T21:21:09.108Z,5.70
2017-09-03T21:24:10.470Z,16.23
2017-09-03T21:27:11.781Z,6.57
2017-09-03T21:30:13.110Z,7.53
2017-09-03T21:33:14.604Z,5.57
2017-09-03T21:36:15.912Z,4.90
2017-09-03T21:39:17.221Z,4.50
2017-09-03T21:42:18.514Z,11.97
2017-09-03T21:45:19.900Z,5.80
2017-09-03T21:48:21.213Z,16.83
2017-09-03T21:51:22.537Z,10.63
2017-09-03T21:54:23.864Z,7.60
2017-09-03T21:57:25.205Z,7.30
2017-09-03T22:00:26.548Z,7.50
2017-09-03T22:03:27.869Z,4.80
2017-09-03T22:06:29.188Z,7.20
2017-09-03T22:09:30.541Z,3.80
2017-09-03T22:12:31.852Z,6.17
2017-09-03T22:15:33.196Z,4.73
2017-09-03T22:18:34.751Z,35.17
2017-09-03T22:21:36.104Z,6.90
2017-09-03T22:24:37.464Z,6.53
2017-09-03T22:27:38.784Z,2.90
2017-09-03T22:30:40.132Z,5.20
2017-09-03T22:33:41.409Z,11.43
2017-09-03T22:36:42.728Z,6.50
2017-09-03T22:39:44.089Z,4.23
2017-09-03T22:42:45.381Z,7.93
2017-09-03T22:45:46.977Z,12.50
2017-09-03T22:48:48.272Z,7.70
2017-09-03T22:51:49.612Z,6.57
2017-09-03T22:54:50.907Z,7.43
2017-09-03T22:57:52.233Z,5.87
2017-09-03T23:00:53.568Z,27.10
2017-09-03T23:03:54.885Z,14.20
2017-09-03T23:06:56.180Z,15.77
2017-09-03T23:09:57.514Z,2.50
2017-09-03T23:12:58.817Z,8.50
2017-09-03T23:16:00.145Z,7.63
2017-09-03T23:19:01.584Z,3.40
2017-09-03T23:22:02.925Z,9.23
2017-09-03T23:25:04.269Z,3.70
2017-09-03T23:28:05.592Z,6.90
2017-09-03T23:31:06.909Z,18.20
2017-09-03T23:34:08.233Z,19.90
2017-09-03T23:37:09.548Z,7.20
2017-09-03T23:40:11.020Z,21.47
2017-09-03T23:43:19.413Z,6.97
2017-09-03T23:46:20.941Z,18.63
2017-09-03T23:49:22.285Z,6.27
2017-09-03T23:52:23.641Z,6.70
2017-09-03T23:55:24.942Z,10.20
2017-09-03T23:58:26.276Z,7.33
